Time;durP1;ratioP1;P1;durP2;ratioP2;P2;SDS_P1;SDS_P2;PMS_P1;PMS_P2;Temp;Humidity;BMP_temperature;BMP_pressure;BME280_temperature;BME280_humidity;BME280_pressure;Samples;Min_cycle;Max_cycle;Signal;HPM_P1;HPM_P2
2023/08/07 00:00:24;;;;;;;3.72;0.50;;;15.90;99.90;;;;;;4918135;29;20204;-88
2023/08/07 00:02:50;;;;;;;0.40;0.32;;;15.70;99.90;;;;;;4917279;29;20192;-89
2023/08/07 00:05:18;;;;;;;0.35;0.35;;;15.70;99.90;;;;;;4917384;29;20188;-89
2023/08/07 00:07:44;;;;;;;0.30;0.30;;;15.60;99.90;;;;;;4901307;29;20251;-89
2023/08/07 00:10:10;;;;;;;0.35;0.35;;;15.50;99.90;;;;;;4916378;29;20212;-89
2023/08/07 00:12:36;;;;;;;0.22;0.22;;;15.50;99.90;;;;;;4917060;29;20212;-87
2023/08/07 00:15:03;;;;;;;0.38;0.30;;;15.40;99.90;;;;;;4916586;29;20192;-87
2023/08/07 00:17:28;;;;;;;0.30;0.30;;;15.40;99.90;;;;;;4915956;29;20244;-88
2023/08/07 00:19:54;;;;;;;0.40;0.40;;;15.30;99.90;;;;;;4900122;29;20593;-88
2023/08/07 00:22:20;;;;;;;0.30;0.30;;;15.30;99.90;;;;;;4915598;29;20275;-88
2023/08/07 00:24:46;;;;;;;0.52;0.30;;;;;;;;;;4916769;29;20181;-88
2023/08/07 00:27:12;;;;;;;0.32;0.32;;;15.30;99.90;;;;;;4915555;29;20224;-88
2023/08/07 00:29:38;;;;;;;0.40;0.40;;;;;;;;;;4916238;29;20562;-90
2023/08/07 00:32:05;;;;;;;0.60;0.60;;;15.30;99.90;;;;;;4920419;29;20622;-89
2023/08/07 00:34:30;;;;;;;0.40;0.40;;;15.30;99.90;;;;;;4918763;29;20277;-89
2023/08/07 00:36:56;;;;;;;0.50;0.25;;;15.30;99.90;;;;;;4918997;29;20232;-90
2023/08/07 00:39:22;;;;;;;0.35;0.30;;;15.30;99.90;;;;;;4919086;29;20196;-89
2023/08/07 00:41:48;;;;;;;0.50;0.50;;;15.30;99.90;;;;;;4919020;29;20631;-88
2023/08/07 00:44:13;;;;;;;0.32;0.32;;;15.30;99.90;;;;;;4919187;29;20203;-90
2023/08/07 00:46:40;;;;;;;0.30;0.30;;;15.30;99.90;;;;;;4921037;29;20623;-89
2023/08/07 00:49:08;;;;;;;0.50;0.50;;;15.20;99.90;;;;;;4921234;29;20189;-90
2023/08/07 00:51:34;;;;;;;0.30;0.30;;;15.30;99.90;;;;;;4920157;29;20209;-89
2023/08/07 00:54:03;;;;;;;0.25;0.25;;;15.20;99.90;;;;;;4919435;29;20292;-88
2023/08/07 00:56:30;;;;;;;0.50;0.50;;;15.20;99.90;;;;;;4919234;29;20173;-89
2023/08/07 00:58:56;;;;;;;0.43;0.43;;;15.20;99.90;;;;;;4919034;29;20189;-89
2023/08/07 01:01:22;;;;;;;0.40;0.40;;;15.30;99.90;;;;;;4921020;29;20192;-89
2023/08/07 01:03:48;;;;;;;0.73;0.50;;;15.20;99.90;;;;;;4918830;29;20197;-89
2023/08/07 01:06:14;;;;;;;0.47;0.47;;;15.20;99.90;;;;;;4918547;29;20210;-90
2023/08/07 01:08:40;;;;;;;2.05;0.50;;;15.20;99.90;;;;;;4918789;29;20248;-89
2023/08/07 01:11:18;;;;;;;0.40;0.40;;;15.20;99.90;;;;;;4918456;29;20555;-91
2023/08/07 01:14:27;;;;;;;0.40;0.40;;;15.30;99.90;;;;;;4920066;29;20646;-89
2023/08/07 01:17:00;;;;;;;0.63;0.55;;;15.30;99.90;;;;;;4918727;29;20180;-90
2023/08/07 01:19:28;;;;;;;0.50;0.50;;;15.30;99.90;;;;;;4918425;29;20224;-89
2023/08/07 01:22:06;;;;;;;0.40;0.40;;;15.30;99.90;;;;;;4920600;29;20272;-88
2023/08/07 01:24:33;;;;;;;0.38;0.38;;;15.30;99.90;;;;;;4924469;29;20620;-89
2023/08/07 01:27:23;;;;;;;0.40;0.40;;;15.30;99.90;;;;;;4920483;29;20216;-90
2023/08/07 01:30:26;;;;;;;0.30;0.30;;;15.30;99.90;;;;;;4864303;29;20192;-89
2023/08/07 01:33:33;;;;;;;0.47;0.47;;;15.20;99.90;;;;;;4923363;29;20602;-87
2023/08/07 01:36:03;;;;;;;0.40;0.40;;;15.10;99.90;;;;;;4829197;29;20224;-89
2023/08/07 01:38:29;;;;;;;0.50;0.50;;;15.20;99.90;;;;;;4902871;29;20267;-89
2023/08/07 01:40:57;;;;;;;0.40;0.40;;;15.10;99.90;;;;;;4918982;29;20271;-88
2023/08/07 01:43:23;;;;;;;0.40;0.40;;;15.10;99.90;;;;;;4917549;29;20642;-88
2023/08/07 01:45:48;;;;;;;1.13;0.65;;;15.00;99.90;;;;;;4918120;29;20191;-90
2023/08/07 01:48:14;;;;;;;1.33;0.43;;;15.00;99.90;;;;;;4902142;29;20275;-89
2023/08/07 01:50:41;;;;;;;0.60;0.40;;;15.10;99.90;;;;;;4917698;29;20192;-89
2023/08/07 01:53:06;;;;;;;0.43;0.43;;;15.00;99.90;;;;;;4918693;29;20291;-88
2023/08/07 01:55:32;;;;;;;0.40;0.40;;;15.20;99.90;;;;;;4918221;29;20737;-89
2023/08/07 01:57:58;;;;;;;0.50;0.50;;;14.80;99.90;;;;;;4917739;29;20268;-88
2023/08/07 02:00:24;;;;;;;0.40;0.40;;;;;;;;;;4901877;29;20550;-90
2023/08/07 02:02:49;;;;;;;0.77;0.50;;;15.10;99.90;;;;;;4917675;29;20183;-88
2023/08/07 02:05:16;;;;;;;0.45;0.45;;;15.10;99.90;;;;;;4918854;29;20271;-89
2023/08/07 02:07:42;;;;;;;0.40;0.40;;;15.10;99.90;;;;;;4918334;29;20208;-88
2023/08/07 02:10:08;;;;;;;0.77;0.52;;;15.10;99.90;;;;;;4918574;29;20189;-89
2023/08/07 02:12:34;;;;;;;1.35;0.90;;;15.10;99.90;;;;;;4901400;29;20512;-89
2023/08/07 02:15:00;;;;;;;0.50;0.50;;;15.10;99.90;;;;;;4917571;29;20195;-88
2023/08/07 02:17:32;;;;;;;1.33;0.57;;;15.10;99.90;;;;;;4917410;29;20188;-90
2023/08/07 02:19:58;;;;;;;0.95;0.60;;;15.10;99.90;;;;;;4917381;29;20283;-89
2023/08/07 02:22:24;;;;;;;0.50;0.50;;;15.10;99.90;;;;;;4918538;29;20751;-89
2023/08/07 02:24:50;;;;;;;1.25;0.68;;;15.20;99.90;;;;;;4901455;29;20216;-89
2023/08/07 02:27:15;;;;;;;0.40;0.40;;;15.10;99.90;;;;;;4918226;29;20299;-90
2023/08/07 02:29:41;;;;;;;0.57;0.55;;;15.10;99.90;;;;;;4916805;29;20653;-89
2023/08/07 02:32:07;;;;;;;0.52;0.52;;;15.20;99.90;;;;;;4918414;29;20185;-89
2023/08/07 02:34:33;;;;;;;0.77;0.77;;;15.30;99.90;;;;;;4917995;29;20184;-89
2023/08/07 02:37:01;;;;;;;0.80;0.70;;;15.20;99.90;;;;;;4917284;29;20188;-90
2023/08/07 02:39:27;;;;;;;1.13;0.50;;;15.20;99.90;;;;;;4916946;29;20635;-90
2023/08/07 02:41:53;;;;;;;0.50;0.50;;;;;;;;;;4901270;29;20191;-90
2023/08/07 02:44:19;;;;;;;0.57;0.57;;;15.20;99.90;;;;;;4917032;29;20192;-90
2023/08/07 02:46:45;;;;;;;1.08;0.65;;;15.20;99.90;;;;;;4916668;29;20188;-91
2023/08/07 02:49:11;;;;;;;0.60;0.60;;;15.20;99.90;;;;;;4917506;29;20193;-90
2023/08/07 02:51:37;;;;;;;0.60;0.60;;;15.20;99.90;;;;;;4900895;29;20193;-90
2023/08/07 02:54:02;;;;;;;0.55;0.50;;;15.20;99.90;;;;;;4916209;29;20246;-90
2023/08/07 02:56:28;;;;;;;0.60;0.60;;;15.20;99.90;;;;;;4916982;29;20184;-94
2023/08/07 02:58:54;;;;;;;0.60;0.60;;;15.20;99.90;;;;;;4926715;29;20180;-88
2023/08/07 03:01:21;;;;;;;1.27;0.75;;;15.20;99.90;;;;;;4916549;29;20188;-92
2023/08/07 03:03:47;;;;;;;0.57;0.57;;;15.20;99.90;;;;;;4920343;29;20211;-89
2023/08/07 03:06:13;;;;;;;0.50;0.50;;;15.20;99.90;;;;;;4918461;29;20208;-89
2023/08/07 03:08:38;;;;;;;2.90;0.80;;;15.10;99.90;;;;;;4918899;29;20300;-89
2023/08/07 03:11:04;;;;;;;0.40;0.40;;;15.20;99.90;;;;;;4900850;29;20718;-92
2023/08/07 03:13:30;;;;;;;1.00;0.73;;;;;;;;;;4916557;29;20689;-92
2023/08/07 03:16:00;;;;;;;0.60;0.60;;;15.20;99.90;;;;;;4916536;29;20184;-90
2023/08/07 03:18:27;;;;;;;0.63;0.60;;;15.20;99.90;;;;;;4916676;29;20197;-88
2023/08/07 03:20:54;;;;;;;0.70;0.70;;;15.20;99.90;;;;;;4916069;29;20188;-91
2023/08/07 03:23:19;;;;;;;5.63;0.63;;;15.20;99.90;;;;;;4900615;29;20320;-89
2023/08/07 03:25:45;;;;;;;0.73;0.73;;;15.20;99.90;;;;;;4900420;29;20271;-92
2023/08/07 03:28:11;;;;;;;0.47;0.47;;;15.20;99.90;;;;;;4917121;29;20618;-92
2023/08/07 03:30:37;;;;;;;0.50;0.50;;;15.20;99.90;;;;;;4918439;29;20649;-90
2023/08/07 03:33:03;;;;;;;2.05;0.63;;;15.20;99.90;;;;;;4925175;29;20222;-88
2023/08/07 03:35:29;;;;;;;0.73;0.73;;;15.20;99.90;;;;;;4916443;29;20649;-89
2023/08/07 03:37:54;;;;;;;0.70;0.70;;;15.20;99.90;;;;;;4935460;29;20563;-89
2023/08/07 03:40:20;;;;;;;0.50;0.50;;;15.10;99.90;;;;;;4934743;29;20566;-89
2023/08/07 03:42:46;;;;;;;0.57;0.57;;;15.10;99.90;;;;;;4919197;29;20661;-87
2023/08/07 03:45:11;;;;;;;0.50;0.50;;;15.10;99.90;;;;;;4920051;29;20184;-87
2023/08/07 03:47:37;;;;;;;1.40;1.30;;;;;;;;;;4919805;29;20222;-88
2023/08/07 03:50:03;;;;;;;0.60;0.60;;;15.10;99.90;;;;;;4916398;29;20192;-89
2023/08/07 03:52:29;;;;;;;0.70;0.70;;;15.10;99.90;;;;;;4928263;29;20196;-86
2023/08/07 03:54:55;;;;;;;0.73;0.73;;;15.10;99.90;;;;;;4917779;29;20255;-91
2023/08/07 03:57:20;;;;;;;0.80;0.80;;;15.10;99.90;;;;;;4918868;29;20195;-94
2023/08/07 03:59:46;;;;;;;0.73;0.73;;;;;;;;;;4916654;29;20188;-90
2023/08/07 04:02:12;;;;;;;0.80;0.68;;;15.10;99.90;;;;;;4931557;29;20211;-91
2023/08/07 04:04:38;;;;;;;0.80;0.80;;;;;;;;;;4918224;29;20222;-89
2023/08/07 04:07:04;;;;;;;0.70;0.70;;;15.10;99.90;;;;;;4936448;29;20218;-91
2023/08/07 04:09:30;;;;;;;0.60;0.60;;;;;;;;;;4939356;29;20192;-91
2023/08/07 04:11:55;;;;;;;0.65;0.50;;;15.10;99.90;;;;;;4937136;29;20192;-90
2023/08/07 04:14:21;;;;;;;0.80;0.80;;;15.40;99.90;;;;;;4946704;29;20195;-92
2023/08/07 04:16:47;;;;;;;0.80;0.80;;;15.20;99.90;;;;;;4911263;29;20206;-90
2023/08/07 04:19:13;;;;;;;0.63;0.63;;;;;;;;;;4936867;29;20179;-88
2023/08/07 04:21:41;;;;;;;1.30;0.77;;;15.30;99.90;;;;;;4939239;29;20195;-88
2023/08/07 04:24:10;;;;;;;2.20;1.33;;;15.20;99.90;;;;;;4907962;29;20239;-89
2023/08/07 04:26:36;;;;;;;0.77;0.77;;;15.20;99.90;;;;;;4921572;29;20685;-88
2023/08/07 04:29:02;;;;;;;2.50;0.90;;;15.20;99.90;;;;;;4934344;29;20231;-89
2023/08/07 04:31:30;;;;;;;0.90;0.85;;;15.20;99.90;;;;;;4929546;29;20191;-89
2023/08/07 04:33:56;;;;;;;0.68;0.63;;;15.20;99.90;;;;;;4943377;28;20222;-90
2023/08/07 04:36:22;;;;;;;2.40;0.77;;;15.20;99.90;;;;;;4967727;28;20176;-90
2023/08/07 04:38:50;;;;;;;0.80;0.80;;;15.20;99.90;;;;;;4957446;29;20187;-88
2023/08/07 04:41:16;;;;;;;1.05;0.80;;;15.40;99.90;;;;;;4947294;29;20661;-89
2023/08/07 04:43:44;;;;;;;0.90;0.90;;;15.20;99.90;;;;;;4920333;29;20200;-90
2023/08/07 04:46:11;;;;;;;1.02;0.90;;;15.20;99.90;;;;;;4921876;29;20192;-91
2023/08/07 04:48:37;;;;;;;0.95;0.73;;;15.30;99.90;;;;;;4907677;29;20231;-91
2023/08/07 04:51:03;;;;;;;0.70;0.70;;;15.40;99.90;;;;;;4942845;29;20184;-91
2023/08/07 04:53:29;;;;;;;0.90;0.80;;;;;;;;;;4939823;29;20190;-90
2023/08/07 04:55:54;;;;;;;1.70;0.60;;;15.40;99.90;;;;;;4932654;29;20228;-90
2023/08/07 04:58:21;;;;;;;1.42;0.90;;;;;;;;;;4923612;29;20205;-90
2023/08/07 05:00:47;;;;;;;1.58;1.05;;;15.40;99.90;;;;;;4944535;29;20192;-89
2023/08/07 05:03:13;;;;;;;0.90;0.90;;;15.40;99.90;;;;;;4943328;29;20231;-89
2023/08/07 05:05:38;;;;;;;0.85;0.85;;;15.40;99.90;;;;;;4941179;29;20220;-89
2023/08/07 05:08:04;;;;;;;0.93;0.82;;;15.40;99.90;;;;;;4943472;29;20208;-90
2023/08/07 05:10:30;;;;;;;1.10;1.00;;;;;;;;;;4924339;29;20192;-91
2023/08/07 05:12:56;;;;;;;2.70;0.90;;;15.40;99.90;;;;;;4921619;29;20660;-90
2023/08/07 05:15:25;;;;;;;0.80;0.80;;;15.40;99.90;;;;;;4906045;29;20204;-90
2023/08/07 05:17:52;;;;;;;1.15;1.00;;;15.40;99.90;;;;;;4939208;29;20205;-89
2023/08/07 05:20:18;;;;;;;3.00;1.02;;;15.50;99.90;;;;;;4922196;29;20183;-90
2023/08/07 05:22:44;;;;;;;1.40;1.05;;;;;;;;;;4937402;29;20180;-89
2023/08/07 05:25:11;;;;;;;0.80;0.80;;;15.40;99.90;;;;;;4937442;29;20187;-90
2023/08/07 05:27:37;;;;;;;1.10;1.00;;;15.40;99.90;;;;;;4938794;29;20259;-89
2023/08/07 05:30:04;;;;;;;0.80;0.80;;;15.40;99.90;;;;;;4921456;29;20308;-88
2023/08/07 05:32:29;;;;;;;1.27;0.85;;;15.40;99.90;;;;;;4921586;29;20244;-87
2023/08/07 05:34:55;;;;;;;1.27;1.10;;;15.40;99.90;;;;;;4921115;29;20180;-89
2023/08/07 05:37:21;;;;;;;3.47;1.13;;;15.40;99.90;;;;;;4905861;29;20196;-89
2023/08/07 05:39:46;;;;;;;0.63;0.60;;;15.50;99.90;;;;;;4921620;29;20179;-89
2023/08/07 05:42:12;;;;;;;0.60;0.60;;;15.50;99.90;;;;;;4921057;29;20210;-89
2023/08/07 05:44:38;;;;;;;0.82;0.82;;;15.40;99.90;;;;;;4920942;29;20548;-88
2023/08/07 05:47:04;;;;;;;0.90;0.90;;;15.40;99.90;;;;;;4937981;29;20184;-90
2023/08/07 05:49:30;;;;;;;1.00;0.75;;;15.40;99.90;;;;;;4905843;29;20676;-89
2023/08/07 05:51:55;;;;;;;0.82;0.82;;;15.30;99.90;;;;;;4936957;29;20187;-88
2023/08/07 05:54:21;;;;;;;1.15;0.70;;;15.30;99.90;;;;;;4920683;29;20247;-90
2023/08/07 05:56:47;;;;;;;0.90;0.90;;;15.30;99.90;;;;;;4921399;29;20172;-90
2023/08/07 05:59:13;;;;;;;0.70;0.70;;;17.90;99.90;;;;;;4920801;29;20577;-89
2023/08/07 06:01:38;;;;;;;1.10;1.00;;;15.40;99.90;;;;;;4905322;29;20214;-89
2023/08/07 06:04:04;;;;;;;0.98;0.93;;;;;;;;;;4920614;29;20184;-90
2023/08/07 06:06:34;;;;;;;0.80;0.80;;;15.50;99.90;;;;;;4936921;29;20180;-90
2023/08/07 06:09:00;;;;;;;3.25;0.98;;;15.60;99.90;;;;;;4905467;29;20219;-90
2023/08/07 06:11:25;;;;;;;0.90;0.90;;;15.70;99.90;;;;;;4936842;29;20191;-91
2023/08/07 06:13:51;;;;;;;0.57;0.57;;;15.70;99.90;;;;;;4938141;29;20201;-89
2023/08/07 06:16:17;;;;;;;1.35;1.05;;;15.70;99.90;;;;;;4920566;29;20267;-90
2023/08/07 06:18:43;;;;;;;0.77;0.77;;;15.70;99.90;;;;;;4920852;29;20196;-91
2023/08/07 06:21:10;;;;;;;0.90;0.80;;;15.70;99.90;;;;;;4936411;29;20176;-91
2023/08/07 06:23:37;;;;;;;1.17;0.88;;;15.60;99.90;;;;;;4920861;29;20184;-90
2023/08/07 06:26:04;;;;;;;1.55;1.00;;;15.60;99.90;;;;;;4936145;29;20235;-89
2023/08/07 06:28:33;;;;;;;0.90;0.90;;;15.70;99.90;;;;;;4935561;29;20215;-91
2023/08/07 06:31:07;;;;;;;0.82;0.80;;;15.60;99.90;;;;;;4920479;29;20656;-90
2023/08/07 06:33:33;;;;;;;1.52;0.90;;;15.70;99.90;;;;;;4936372;29;20176;-89
2023/08/07 06:35:59;;;;;;;1.70;1.13;;;15.60;99.90;;;;;;4937034;29;20708;-90
2023/08/07 06:38:25;;;;;;;4.28;1.00;;;15.70;99.90;;;;;;4935378;29;20188;-90
2023/08/07 06:40:51;;;;;;;1.10;1.00;;;15.80;99.90;;;;;;4903753;29;20184;-90
2023/08/07 06:43:16;;;;;;;2.65;1.17;;;15.80;99.90;;;;;;4918144;29;20616;-90
2023/08/07 06:45:42;;;;;;;1.58;1.30;;;15.80;99.90;;;;;;4934642;29;20203;-90
2023/08/07 06:48:08;;;;;;;0.82;0.80;;;16.00;99.90;;;;;;4933769;29;20673;-90
2023/08/07 06:50:33;;;;;;;1.27;1.10;;;16.00;99.90;;;;;;4916687;29;20604;-91
2023/08/07 06:52:59;;;;;;;1.73;1.02;;;16.10;99.90;;;;;;4916637;29;20195;-89
2023/08/07 06:55:25;;;;;;;1.05;0.95;;;16.20;99.90;;;;;;4934124;29;20587;-87
2023/08/07 06:57:51;;;;;;;1.40;1.17;;;16.30;99.90;;;;;;4919707;29;20199;-92
2023/08/07 07:00:25;;;;;;;1.92;1.40;;;16.40;99.90;;;;;;4921439;29;20351;-93
2023/08/07 07:02:51;;;;;;;2.20;1.08;;;16.40;99.90;;;;;;4927634;29;20302;-90
2023/08/07 07:05:19;;;;;;;1.45;0.93;;;16.40;99.90;;;;;;4904983;29;20650;-95
2023/08/07 07:07:45;;;;;;;2.22;1.20;;;16.20;99.90;;;;;;4916132;28;20195;-92
2023/08/07 07:10:11;;;;;;;1.95;1.27;;;16.60;99.90;;;;;;4942371;28;20202;-91
2023/08/07 07:12:37;;;;;;;1.38;1.15;;;16.30;99.90;;;;;;4958954;28;20176;-90
2023/08/07 07:15:03;;;;;;;1.30;0.90;;;16.30;99.90;;;;;;4934984;29;20184;-92
2023/08/07 07:17:28;;;;;;;1.52;1.10;;;16.40;99.90;;;;;;4916974;29;20657;-90
2023/08/07 07:19:56;;;;;;;1.33;1.20;;;;;;;;;;4916423;29;20185;-90
2023/08/07 07:22:22;;;;;;;1.02;0.93;;;15.70;99.90;;;;;;4915973;29;20271;-92
2023/08/07 07:24:48;;;;;;;1.05;0.95;;;16.50;99.90;;;;;;4916192;29;20264;-94
2023/08/07 07:27:14;;;;;;;0.85;0.85;;;16.50;99.90;;;;;;4917194;29;20220;-94
2023/08/07 07:29:39;;;;;;;1.23;1.13;;;16.60;99.90;;;;;;4932460;29;20712;-91
2023/08/07 07:32:06;;;;;;;1.15;1.05;;;16.70;99.90;;;;;;4936989;29;20550;-92
2023/08/07 07:34:33;;;;;;;1.65;1.00;;;16.80;99.90;;;;;;4919515;29;20188;-92
2023/08/07 07:37:01;;;;;;;2.15;1.00;;;16.80;99.90;;;;;;4936609;29;20179;-91
2023/08/07 07:39:26;;;;;;;1.17;1.02;;;17.00;99.90;;;;;;4920720;29;20184;-94
2023/08/07 07:41:52;;;;;;;1.15;1.02;;;;;;;;;;4935641;29;20184;-90
2023/08/07 07:44:18;;;;;;;2.00;1.10;;;17.30;99.90;;;;;;4919170;29;20212;-93
2023/08/07 07:46:44;;;;;;;2.10;1.00;;;17.50;99.90;;;;;;4935087;29;20214;-90
2023/08/07 07:49:10;;;;;;;3.20;1.00;;;;;;;;;;4935947;29;20303;-90
2023/08/07 07:51:37;;;;;;;1.33;1.20;;;17.50;99.90;;;;;;4934843;29;20191;-91
2023/08/07 07:54:03;;;;;;;1.63;1.10;;;17.40;99.90;;;;;;4918294;29;20340;-90
2023/08/07 07:56:28;;;;;;;1.38;0.90;;;17.60;99.90;;;;;;4919968;29;20653;-91
2023/08/07 07:58:54;;;;;;;1.05;1.00;;;17.50;99.90;;;;;;4935618;29;20531;-88
2023/08/07 08:01:23;;;;;;;1.05;1.02;;;17.50;99.90;;;;;;4903747;29;20625;-91
2023/08/07 08:03:49;;;;;;;1.38;1.13;;;17.90;99.90;;;;;;4919464;29;20180;-89
2023/08/07 08:06:15;;;;;;;2.80;1.27;;;17.50;99.90;;;;;;4903639;29;20211;-91
2023/08/07 08:08:42;;;;;;;1.58;1.05;;;18.20;99.90;;;;;;4920170;29;20728;-89
2023/08/07 08:11:08;;;;;;;1.08;0.93;;;17.50;99.90;;;;;;4935389;29;20184;-91
2023/08/07 08:13:38;;;;;;;1.17;1.08;;;17.60;99.90;;;;;;4919106;29;20191;-89
2023/08/07 08:16:05;;;;;;;1.52;1.17;;;17.70;99.90;;;;;;4923613;29;20195;-92
2023/08/07 08:18:31;;;;;;;1.30;1.08;;;18.30;99.90;;;;;;4936159;29;20192;-90
2023/08/07 08:20:59;;;;;;;1.70;1.00;;;18.00;99.90;;;;;;4922833;29;20184;-95
2023/08/07 08:23:27;;;;;;;1.45;0.98;;;17.60;99.90;;;;;;4923452;29;20184;-92
2023/08/07 08:25:54;;;;;;;1.05;1.00;;;18.00;99.90;;;;;;4925437;29;20176;-91
2023/08/07 08:28:20;;;;;;;1.15;1.05;;;18.30;99.90;;;;;;4926179;29;20207;-91
2023/08/07 08:30:46;;;;;;;1.40;1.10;;;18.00;99.90;;;;;;4909853;29;20180;-93
2023/08/07 08:33:14;;;;;;;1.00;0.90;;;18.40;99.90;;;;;;4928718;29;20188;-92
2023/08/07 08:35:42;;;;;;;3.17;1.10;;;18.40;99.90;;;;;;4939615;29;20188;-93
2023/08/07 08:38:09;;;;;;;1.80;1.02;;;18.40;99.90;;;;;;4944045;29;20322;-89
2023/08/07 08:40:37;;;;;;;1.05;0.98;;;18.50;99.90;;;;;;4947293;29;20176;-92
2023/08/07 08:43:05;;;;;;;2.15;1.23;;;18.80;99.90;;;;;;4945376;29;20172;-91
2023/08/07 08:45:34;;;;;;;1.13;0.98;;;19.00;99.90;;;;;;4927255;29;20263;-90
2023/08/07 08:48:03;;;;;;;1.40;1.10;;;18.80;99.90;;;;;;4951743;29;20200;-91
2023/08/07 08:50:33;;;;;;;1.50;1.08;;;18.70;99.90;;;;;;4953432;29;20188;-93
2023/08/07 08:53:00;;;;;;;1.17;0.90;;;19.00;99.90;;;;;;4950019;29;20630;-93
2023/08/07 08:55:26;;;;;;;1.50;1.20;;;18.80;99.90;;;;;;4945975;29;20236;-92
2023/08/07 08:57:56;;;;;;;1.08;0.75;;;18.90;99.90;;;;;;4945335;29;20184;-91
2023/08/07 09:00:25;;;;;;;2.15;1.00;;;19.50;99.90;;;;;;4945703;29;20184;-93
2023/08/07 09:02:54;;;;;;;2.00;1.00;;;19.00;99.90;;;;;;4947022;29;20180;-93
2023/08/07 09:05:21;;;;;;;1.48;1.00;;;19.40;99.90;;;;;;4928027;29;20264;-91
2023/08/07 09:07:49;;;;;;;1.40;1.10;;;19.10;99.90;;;;;;4929197;29;20211;-93
2023/08/07 09:10:18;;;;;;;1.10;1.00;;;19.80;99.90;;;;;;4960662;29;20176;-92
2023/08/07 09:13:09;;;;;;;2.30;1.40;;;19.60;99.90;;;;;;4961083;29;20171;-92
2023/08/07 09:15:38;;;;;;;1.60;1.15;;;19.50;99.90;;;;;;4960173;29;20257;-93
2023/08/07 09:18:07;;;;;;;1.20;1.10;;;19.40;99.90;;;;;;4960647;29;20168;-90
2023/08/07 09:20:35;;;;;;;2.10;1.23;;;19.50;99.90;;;;;;4960725;29;20164;-94
2023/08/07 09:23:00;;;;;;;1.10;1.00;;;19.70;99.90;;;;;;4951608;29;20414;-91
2023/08/07 09:25:28;;;;;;;0.65;0.63;;;19.30;99.90;;;;;;4923136;29;20263;-90
2023/08/07 09:27:55;;;;;;;2.45;0.90;;;19.40;99.90;;;;;;4941352;29;20290;-90
2023/08/07 09:30:21;;;;;;;1.52;1.25;;;19.30;99.90;;;;;;4943659;29;20207;-93
2023/08/07 09:32:50;;;;;;;1.10;0.82;;;19.40;99.90;;;;;;4947350;29;20203;-91
2023/08/07 09:35:15;;;;;;;1.20;1.02;;;19.40;99.90;;;;;;4933871;29;20207;-94
2023/08/07 09:37:46;;;;;;;1.10;0.85;;;19.50;98.20;;;;;;4928711;29;20208;-91
2023/08/07 09:40:15;;;;;;;0.98;0.90;;;18.20;99.60;;;;;;4944117;29;20208;-93
2023/08/07 09:42:40;;;;;;;0.80;0.80;;;19.60;99.90;;;;;;4940395;29;20184;-90
2023/08/07 09:45:31;;;;;;;1.20;0.95;;;19.80;99.90;;;;;;4941157;29;20625;-91
2023/08/07 09:48:06;;;;;;;1.50;0.95;;;20.60;99.90;;;;;;4935254;29;20227;-93
2023/08/07 09:50:33;;;;;;;2.08;1.15;;;20.20;98.70;;;;;;4945379;29;20175;-93
2023/08/07 09:53:01;;;;;;;1.20;1.10;;;20.20;96.10;;;;;;4915846;29;20256;-96
2023/08/07 09:55:31;;;;;;;0.85;0.85;;;20.60;94.80;;;;;;4931178;29;20235;-94
2023/08/07 09:58:01;;;;;;;1.30;1.20;;;20.60;99.10;;;;;;4926010;29;20184;-96
2023/08/07 10:00:40;;;;;;;1.58;1.40;;;20.30;97.20;;;;;;4942924;29;20188;-92
2023/08/07 10:03:06;;;;;;;1.60;1.15;;;;;;;;;;4943716;29;20180;-94
2023/08/07 10:05:39;;;;;;;1.20;1.10;;;20.40;95.20;;;;;;4945023;29;20191;-91
2023/08/07 10:08:05;;;;;;;1.50;1.40;;;20.90;96.00;;;;;;4926407;29;20220;-94
2023/08/07 10:10:34;;;;;;;1.20;0.90;;;20.60;95.20;;;;;;4925048;29;20226;-93
2023/08/07 10:13:01;;;;;;;5.07;1.13;;;20.30;96.20;;;;;;4942343;29;20656;-93
2023/08/07 10:15:31;;;;;;;2.80;1.73;;;20.50;95.10;;;;;;4942389;29;20216;-93
2023/08/07 10:17:57;;;;;;;1.63;1.17;;;20.40;94.40;;;;;;4943771;29;20207;-94
2023/08/07 10:20:26;;;;;;;1.55;1.15;;;21.50;96.60;;;;;;4942012;29;20190;-89
2023/08/07 10:22:57;;;;;;;0.80;0.80;;;21.10;92.90;;;;;;4942588;29;20238;-92
2023/08/07 10:25:24;;;;;;;1.33;0.85;;;20.80;93.50;;;;;;4928178;29;20310;-91
2023/08/07 10:27:53;;;;;;;1.70;1.17;;;21.00;92.10;;;;;;4943034;29;20293;-89
2023/08/07 10:30:20;;;;;;;2.17;1.30;;;21.30;92.60;;;;;;4942108;29;20252;-93
2023/08/07 10:32:48;;;;;;;1.88;1.50;;;20.90;93.60;;;;;;4941734;29;20207;-94
2023/08/07 10:35:29;;;;;;;1.40;1.20;;;20.80;94.00;;;;;;4943958;29;20247;-92
2023/08/07 10:38:09;;;;;;;1.52;1.20;;;20.90;94.20;;;;;;4914381;29;20172;-95
2023/08/07 10:41:06;;;;;;;1.10;0.93;;;20.60;92.70;;;;;;4945741;29;20180;-92
2023/08/07 10:43:37;;;;;;;1.25;0.90;;;20.60;92.30;;;;;;4943379;29;20176;-93
2023/08/07 10:46:05;;;;;;;1.27;0.85;;;20.60;92.20;;;;;;4943189;29;20184;-92
2023/08/07 10:48:41;;;;;;;0.82;0.82;;;20.70;91.50;;;;;;4926290;29;20216;-92
2023/08/07 10:51:07;;;;;;;1.45;0.90;;;19.90;90.90;;;;;;4942898;29;20274;-92
2023/08/07 10:53:43;;;;;;;2.42;0.95;;;20.30;92.70;;;;;;4940237;29;20199;-89
2023/08/07 10:56:20;;;;;;;1.02;0.90;;;20.40;92.00;;;;;;4927502;29;20188;-93
2023/08/07 10:58:52;;;;;;;1.30;0.90;;;20.60;91.20;;;;;;4943103;29;20644;-93
2023/08/07 11:01:31;;;;;;;2.70;1.08;;;20.80;93.50;;;;;;4926332;29;20305;-92
2023/08/07 11:04:13;;;;;;;1.20;0.90;;;20.40;89.60;;;;;;4926232;29;20655;-91
2023/08/07 11:06:40;;;;;;;4.82;0.98;;;20.30;91.10;;;;;;4940685;29;20178;-90
2023/08/07 11:09:09;;;;;;;0.80;0.80;;;20.20;90.40;;;;;;4941719;29;20215;-90
2023/08/07 11:11:43;;;;;;;2.58;0.88;;;17.70;90.40;;;;;;4916005;29;20199;-91
2023/08/07 11:14:13;;;;;;;3.00;0.90;;;20.10;91.70;;;;;;4939184;29;20168;-91
2023/08/07 11:16:39;;;;;;;0.82;0.80;;;20.20;91.10;;;;;;4941196;29;20176;-92
2023/08/07 11:19:05;;;;;;;1.20;0.95;;;20.30;92.20;;;;;;4939089;29;20193;-91
2023/08/07 11:21:32;;;;;;;0.80;0.80;;;20.00;90.60;;;;;;4939648;29;20203;-93
2023/08/07 11:23:58;;;;;;;0.93;0.70;;;20.30;93.30;;;;;;4940036;29;20184;-92
2023/08/07 11:26:34;;;;;;;0.60;0.60;;;20.20;92.60;;;;;;4944087;29;20179;-93
2023/08/07 11:29:00;;;;;;;1.08;0.85;;;20.60;91.70;;;;;;4927580;29;20226;-94
2023/08/07 11:31:28;;;;;;;1.17;0.80;;;;;;;;;;4941469;29;20188;-89
2023/08/07 11:33:58;;;;;;;1.23;0.68;;;20.40;90.30;;;;;;4942089;29;20202;-94
2023/08/07 11:36:24;;;;;;;1.10;0.70;;;20.50;93.10;;;;;;4910055;29;20238;-90
2023/08/07 11:38:50;;;;;;;0.70;0.70;;;;;;;;;;4927985;29;20251;-94
2023/08/07 11:41:18;;;;;;;0.80;0.80;;;20.60;89.70;;;;;;4946548;29;20179;-93
2023/08/07 11:43:46;;;;;;;1.55;0.73;;;20.70;91.00;;;;;;4931443;29;20187;-93
2023/08/07 11:46:16;;;;;;;1.63;0.93;;;20.80;91.30;;;;;;4931537;29;20589;-91
2023/08/07 11:48:44;;;;;;;1.23;1.13;;;21.00;90.70;;;;;;4925629;29;20212;-92
2023/08/07 11:51:10;;;;;;;1.02;0.93;;;;;;;;;;4922177;29;20287;-90
2023/08/07 11:53:38;;;;;;;3.22;0.70;;;21.20;87.30;;;;;;4942357;29;20183;-91
2023/08/07 11:56:05;;;;;;;0.70;0.70;;;20.90;89.40;;;;;;4937609;29;20211;-88
2023/08/07 11:58:37;;;;;;;2.22;0.90;;;21.10;91.10;;;;;;4955555;29;20199;-90
2023/08/07 12:01:10;;;;;;;2.55;1.13;;;19.30;88.40;;;;;;4938677;29;20172;-91
2023/08/07 12:03:40;;;;;;;0.90;0.90;;;20.60;88.20;;;;;;4942715;29;20183;-92
2023/08/07 12:06:07;;;;;;;0.98;0.75;;;20.50;90.20;;;;;;4941742;29;20188;-93
2023/08/07 12:08:41;;;;;;;0.82;0.60;;;20.50;89.60;;;;;;4923415;29;20219;-90
2023/08/07 12:11:11;;;;;;;0.63;0.63;;;20.30;87.70;;;;;;4907445;29;20578;-92
2023/08/07 12:13:49;;;;;;;0.77;0.77;;;20.40;90.30;;;;;;4923849;29;20176;-89
2023/08/07 12:16:17;;;;;;;0.80;0.80;;;18.90;91.10;;;;;;4923981;29;20203;-91
2023/08/07 12:18:46;;;;;;;0.77;0.77;;;22.40;91.80;;;;;;4920661;29;20191;-92
2023/08/07 12:21:25;;;;;;;1.77;0.85;;;20.80;90.60;;;;;;4921877;29;20235;-90
2023/08/07 12:23:54;;;;;;;0.90;0.80;;;20.80;91.60;;;;;;4922070;29;20180;-89
2023/08/07 12:26:20;;;;;;;1.10;1.00;;;20.80;90.80;;;;;;4926284;29;20186;-92
2023/08/07 12:28:46;;;;;;;1.00;0.90;;;;;;;;;;4936874;29;20300;-91
2023/08/07 12:31:12;;;;;;;0.82;0.70;;;21.00;88.90;;;;;;4954758;29;20203;-92
2023/08/07 12:33:40;;;;;;;1.38;1.17;;;19.40;91.30;;;;;;4929862;29;20642;-89
2023/08/07 12:36:08;;;;;;;1.98;0.98;;;21.10;91.30;;;;;;4943322;29;20202;-87
2023/08/07 12:38:33;;;;;;;0.50;0.50;;;21.00;88.80;;;;;;4933323;29;20211;-95
2023/08/07 12:40:59;;;;;;;1.65;0.77;;;;;;;;;;4908674;29;20184;-89
2023/08/07 12:43:28;;;;;;;1.73;0.80;;;21.00;84.10;;;;;;4923155;29;20192;-91
2023/08/07 12:45:54;;;;;;;0.88;0.77;;;20.90;86.50;;;;;;4907426;29;20645;-92
2023/08/07 12:48:20;;;;;;;3.13;0.90;;;;;;;;;;4924082;29;20215;-94
2023/08/07 12:50:46;;;;;;;1.33;0.82;;;21.10;84.30;;;;;;4939435;29;20188;-91
2023/08/07 12:53:12;;;;;;;0.70;0.70;;;21.20;88.20;;;;;;4939925;29;20657;-92
2023/08/07 12:55:38;;;;;;;1.25;0.98;;;;;;;;;;4939881;29;20227;-91
2023/08/07 12:58:04;;;;;;;1.38;0.80;;;21.30;84.00;;;;;;4938612;29;20183;-92